sensor_id;sensor_type;location;lat;lon;timestamp;P1;durP1;ratioP1;P2;durP2;ratioP2
46781;SDS011;32541;46.298;11.506;2022-10-31T00:02:04;10.27;;;2.00;;
46781;SDS011;32541;46.298;11.506;2022-10-31T00:04:30;4.93;;;1.92;;
46781;SDS011;32541;46.298;11.506;2022-10-31T00:06:55;8.63;;;1.65;;
46781;SDS011;32541;46.298;11.506;2022-10-31T00:09:20;9.80;;;1.45;;
46781;SDS011;32541;46.298;11.506;2022-10-31T00:11:46;6.93;;;1.55;;
46781;SDS011;32541;46.298;11.506;2022-10-31T00:14:11;9.23;;;2.00;;
46781;SDS011;32541;46.298;11.506;2022-10-31T00:16:37;6.15;;;1.83;;
46781;SDS011;32541;46.298;11.506;2022-10-31T00:19:03;9.20;;;2.40;;
46781;SDS011;32541;46.298;11.506;2022-10-31T00:21:31;6.78;;;1.98;;
46781;SDS011;32541;46.298;11.506;2022-10-31T00:23:58;5.97;;;1.95;;
46781;SDS011;32541;46.298;11.506;2022-10-31T00:26:24;8.20;;;2.35;;
46781;SDS011;32541;46.298;11.506;2022-10-31T00:28:51;8.82;;;1.55;;
46781;SDS011;32541;46.298;11.506;2022-10-31T00:31:16;7.25;;;1.75;;
46781;SDS011;32541;46.298;11.506;2022-10-31T00:33:42;7.30;;;2.10;;
46781;SDS011;32541;46.298;11.506;2022-10-31T00:36:15;7.50;;;1.90;;
46781;SDS011;32541;46.298;11.506;2022-10-31T00:38:43;7.53;;;1.60;;
46781;SDS011;32541;46.298;11.506;2022-10-31T00:41:10;6.78;;;1.95;;
46781;SDS011;32541;46.298;11.506;2022-10-31T00:43:36;8.88;;;1.60;;
46781;SDS011;32541;46.298;11.506;2022-10-31T00:46:02;8.88;;;1.88;;
46781;SDS011;32541;46.298;11.506;2022-10-31T00:48:28;7.28;;;1.50;;
46781;SDS011;32541;46.298;11.506;2022-10-31T00:50:53;2.88;;;0.98;;
46781;SDS011;32541;46.298;11.506;2022-10-31T00:53:19;7.72;;;1.25;;
46781;SDS011;32541;46.298;11.506;2022-10-31T00:55:44;5.43;;;1.42;;
46781;SDS011;32541;46.298;11.506;2022-10-31T00:58:10;5.28;;;2.22;;
46781;SDS011;32541;46.298;11.506;2022-10-31T01:00:35;7.45;;;2.35;;
46781;SDS011;32541;46.298;11.506;2022-10-31T01:03:00;7.88;;;2.30;;
46781;SDS011;32541;46.298;11.506;2022-10-31T01:05:26;4.97;;;1.52;;
46781;SDS011;32541;46.298;11.506;2022-10-31T01:07:51;5.05;;;1.48;;
46781;SDS011;32541;46.298;11.506;2022-10-31T01:10:17;6.10;;;1.70;;
46781;SDS011;32541;46.298;11.506;2022-10-31T01:12:44;5.18;;;1.88;;
46781;SDS011;32541;46.298;11.506;2022-10-31T01:15:12;3.80;;;1.67;;
46781;SDS011;32541;46.298;11.506;2022-10-31T01:17:39;8.45;;;1.90;;
46781;SDS011;32541;46.298;11.506;2022-10-31T01:20:05;8.20;;;1.33;;
46781;SDS011;32541;46.298;11.506;2022-10-31T01:22:32;8.57;;;1.67;;
46781;SDS011;32541;46.298;11.506;2022-10-31T01:24:58;6.07;;;1.75;;
46781;SDS011;32541;46.298;11.506;2022-10-31T01:27:24;4.82;;;1.88;;
46781;SDS011;32541;46.298;11.506;2022-10-31T01:29:50;7.07;;;1.70;;
46781;SDS011;32541;46.298;11.506;2022-10-31T01:32:15;8.80;;;1.85;;
46781;SDS011;32541;46.298;11.506;2022-10-31T01:34:44;7.65;;;2.38;;
46781;SDS011;32541;46.298;11.506;2022-10-31T01:37:09;7.57;;;1.95;;
46781;SDS011;32541;46.298;11.506;2022-10-31T01:39:34;6.65;;;1.35;;
46781;SDS011;32541;46.298;11.506;2022-10-31T01:42:00;5.15;;;1.75;;
46781;SDS011;32541;46.298;11.506;2022-10-31T01:49:45;11.65;;;2.03;;
46781;SDS011;32541;46.298;11.506;2022-10-31T01:52:18;9.35;;;1.75;;
46781;SDS011;32541;46.298;11.506;2022-10-31T01:55:07;7.05;;;1.48;;
46781;SDS011;32541;46.298;11.506;2022-10-31T01:57:49;8.05;;;2.30;;
46781;SDS011;32541;46.298;11.506;2022-10-31T02:00:17;6.30;;;1.63;;
46781;SDS011;32541;46.298;11.506;2022-10-31T02:02:45;6.30;;;2.03;;
46781;SDS011;32541;46.298;11.506;2022-10-31T02:05:18;12.18;;;1.73;;
46781;SDS011;32541;46.298;11.506;2022-10-31T02:07:57;8.00;;;1.88;;
46781;SDS011;32541;46.298;11.506;2022-10-31T02:10:37;6.05;;;1.50;;
46781;SDS011;32541;46.298;11.506;2022-10-31T02:13:04;6.25;;;1.83;;
46781;SDS011;32541;46.298;11.506;2022-10-31T02:15:32;7.28;;;1.90;;
46781;SDS011;32541;46.298;11.506;2022-10-31T02:17:59;7.20;;;1.98;;
46781;SDS011;32541;46.298;11.506;2022-10-31T02:20:26;9.25;;;1.67;;
46781;SDS011;32541;46.298;11.506;2022-10-31T02:23:19;4.05;;;1.73;;
46781;SDS011;32541;46.298;11.506;2022-10-31T02:31:49;9.25;;;1.88;;
46781;SDS011;32541;46.298;11.506;2022-10-31T02:37:09;9.32;;;1.67;;
46781;SDS011;32541;46.298;11.506;2022-10-31T02:42:23;6.90;;;1.65;;
46781;SDS011;32541;46.298;11.506;2022-10-31T02:47:33;6.35;;;1.40;;
46781;SDS011;32541;46.298;11.506;2022-10-31T02:52:42;9.75;;;2.13;;
46781;SDS011;32541;46.298;11.506;2022-10-31T02:55:09;6.93;;;1.73;;
46781;SDS011;32541;46.298;11.506;2022-10-31T02:58:06;8.15;;;2.25;;
46781;SDS011;32541;46.298;11.506;2022-10-31T03:06:17;6.45;;;1.63;;
46781;SDS011;32541;46.298;11.506;2022-10-31T03:11:52;10.32;;;2.33;;
46781;SDS011;32541;46.298;11.506;2022-10-31T03:14:31;8.88;;;1.88;;
46781;SDS011;32541;46.298;11.506;2022-10-31T03:16:59;8.00;;;2.00;;
46781;SDS011;32541;46.298;11.506;2022-10-31T03:19:32;7.75;;;1.85;;
46781;SDS011;32541;46.298;11.506;2022-10-31T03:22:16;6.10;;;1.70;;
46781;SDS011;32541;46.298;11.506;2022-10-31T03:27:14;9.73;;;1.95;;
46781;SDS011;32541;46.298;11.506;2022-10-31T03:29:42;5.93;;;1.60;;
46781;SDS011;32541;46.298;11.506;2022-10-31T03:32:11;5.97;;;1.23;;
46781;SDS011;32541;46.298;11.506;2022-10-31T03:34:40;4.68;;;1.58;;
46781;SDS011;32541;46.298;11.506;2022-10-31T03:37:08;7.90;;;1.85;;
46781;SDS011;32541;46.298;11.506;2022-10-31T03:39:37;9.48;;;1.58;;
46781;SDS011;32541;46.298;11.506;2022-10-31T03:42:07;7.80;;;1.77;;
46781;SDS011;32541;46.298;11.506;2022-10-31T03:44:38;4.28;;;1.88;;
46781;SDS011;32541;46.298;11.506;2022-10-31T03:47:09;6.25;;;2.15;;
46781;SDS011;32541;46.298;11.506;2022-10-31T03:49:35;5.60;;;1.60;;
46781;SDS011;32541;46.298;11.506;2022-10-31T03:52:13;4.85;;;1.80;;
46781;SDS011;32541;46.298;11.506;2022-10-31T03:54:44;9.48;;;2.15;;
46781;SDS011;32541;46.298;11.506;2022-10-31T03:57:16;10.82;;;1.45;;
46781;SDS011;32541;46.298;11.506;2022-10-31T03:59:47;9.57;;;2.40;;
46781;SDS011;32541;46.298;11.506;2022-10-31T04:02:36;9.93;;;1.38;;
46781;SDS011;32541;46.298;11.506;2022-10-31T04:05:06;7.88;;;1.48;;
46781;SDS011;32541;46.298;11.506;2022-10-31T04:07:34;7.00;;;1.92;;
46781;SDS011;32541;46.298;11.506;2022-10-31T04:10:04;3.75;;;1.23;;
46781;SDS011;32541;46.298;11.506;2022-10-31T04:12:33;7.35;;;1.75;;
46781;SDS011;32541;46.298;11.506;2022-10-31T04:15:01;8.30;;;1.60;;
46781;SDS011;32541;46.298;11.506;2022-10-31T04:17:29;4.30;;;1.38;;
46781;SDS011;32541;46.298;11.506;2022-10-31T04:20:01;5.10;;;1.40;;
46781;SDS011;32541;46.298;11.506;2022-10-31T04:22:27;4.55;;;1.27;;
46781;SDS011;32541;46.298;11.506;2022-10-31T04:24:52;5.65;;;1.98;;
46781;SDS011;32541;46.298;11.506;2022-10-31T04:27:18;5.50;;;1.77;;
46781;SDS011;32541;46.298;11.506;2022-10-31T04:29:43;6.35;;;2.00;;
46781;SDS011;32541;46.298;11.506;2022-10-31T04:32:09;8.57;;;2.03;;
46781;SDS011;32541;46.298;11.506;2022-10-31T04:34:34;6.68;;;1.40;;
46781;SDS011;32541;46.298;11.506;2022-10-31T04:36:59;8.32;;;1.58;;
46781;SDS011;32541;46.298;11.506;2022-10-31T04:39:25;6.50;;;1.65;;
46781;SDS011;32541;46.298;11.506;2022-10-31T04:41:50;6.28;;;1.48;;
46781;SDS011;32541;46.298;11.506;2022-10-31T04:44:16;6.25;;;1.85;;
46781;SDS011;32541;46.298;11.506;2022-10-31T04:46:41;6.80;;;1.83;;
46781;SDS011;32541;46.298;11.506;2022-10-31T04:49:07;15.82;;;3.80;;
46781;SDS011;32541;46.298;11.506;2022-10-31T04:51:32;6.40;;;1.65;;
46781;SDS011;32541;46.298;11.506;2022-10-31T04:53:57;6.13;;;1.60;;
46781;SDS011;32541;46.298;11.506;2022-10-31T04:56:23;9.60;;;2.00;;
46781;SDS011;32541;46.298;11.506;2022-10-31T04:58:48;10.43;;;2.67;;
46781;SDS011;32541;46.298;11.506;2022-10-31T05:01:14;5.85;;;1.23;;
46781;SDS011;32541;46.298;11.506;2022-10-31T05:03:39;7.47;;;1.40;;
46781;SDS011;32541;46.298;11.506;2022-10-31T05:06:05;6.28;;;2.47;;
46781;SDS011;32541;46.298;11.506;2022-10-31T05:08:31;6.20;;;1.98;;
46781;SDS011;32541;46.298;11.506;2022-10-31T05:11:00;5.70;;;1.40;;
46781;SDS011;32541;46.298;11.506;2022-10-31T05:13:29;8.55;;;2.67;;
46781;SDS011;32541;46.298;11.506;2022-10-31T05:15:55;6.75;;;1.60;;
46781;SDS011;32541;46.298;11.506;2022-10-31T05:18:20;7.70;;;1.65;;
46781;SDS011;32541;46.298;11.506;2022-10-31T05:20:46;10.25;;;2.03;;
46781;SDS011;32541;46.298;11.506;2022-10-31T05:23:12;4.68;;;1.50;;
46781;SDS011;32541;46.298;11.506;2022-10-31T05:25:37;8.90;;;1.38;;
46781;SDS011;32541;46.298;11.506;2022-10-31T05:28:04;5.28;;;1.48;;
46781;SDS011;32541;46.298;11.506;2022-10-31T05:30:30;8.57;;;1.92;;
46781;SDS011;32541;46.298;11.506;2022-10-31T05:32:57;8.85;;;1.55;;
46781;SDS011;32541;46.298;11.506;2022-10-31T05:35:27;8.27;;;1.83;;
46781;SDS011;32541;46.298;11.506;2022-10-31T05:37:54;7.90;;;1.80;;
46781;SDS011;32541;46.298;11.506;2022-10-31T05:40:20;5.40;;;1.20;;
46781;SDS011;32541;46.298;11.506;2022-10-31T05:42:46;8.65;;;2.20;;
46781;SDS011;32541;46.298;11.506;2022-10-31T05:45:16;7.65;;;2.92;;
46781;SDS011;32541;46.298;11.506;2022-10-31T05:47:56;9.10;;;3.03;;
46781;SDS011;32541;46.298;11.506;2022-10-31T05:50:24;7.03;;;2.30;;
46781;SDS011;32541;46.298;11.506;2022-10-31T05:53:09;14.25;;;2.55;;
46781;SDS011;32541;46.298;11.506;2022-10-31T05:55:34;6.97;;;2.00;;
46781;SDS011;32541;46.298;11.506;2022-10-31T05:58:00;9.27;;;3.30;;
46781;SDS011;32541;46.298;11.506;2022-10-31T06:00:26;11.82;;;2.20;;
46781;SDS011;32541;46.298;11.506;2022-10-31T06:03:01;7.60;;;2.47;;
46781;SDS011;32541;46.298;11.506;2022-10-31T06:05:29;7.30;;;1.77;;
46781;SDS011;32541;46.298;11.506;2022-10-31T06:07:55;7.35;;;1.98;;
46781;SDS011;32541;46.298;11.506;2022-10-31T06:10:21;6.88;;;1.23;;
46781;SDS011;32541;46.298;11.506;2022-10-31T06:12:47;5.85;;;1.55;;
46781;SDS011;32541;46.298;11.506;2022-10-31T06:15:13;8.52;;;2.35;;
46781;SDS011;32541;46.298;11.506;2022-10-31T06:17:39;6.53;;;1.98;;
46781;SDS011;32541;46.298;11.506;2022-10-31T06:20:04;9.45;;;2.00;;
46781;SDS011;32541;46.298;11.506;2022-10-31T06:22:30;11.43;;;1.52;;
46781;SDS011;32541;46.298;11.506;2022-10-31T06:24:56;4.22;;;1.50;;
46781;SDS011;32541;46.298;11.506;2022-10-31T06:27:21;7.15;;;1.95;;
46781;SDS011;32541;46.298;11.506;2022-10-31T06:29:47;9.07;;;1.85;;
46781;SDS011;32541;46.298;11.506;2022-10-31T06:32:13;7.47;;;2.05;;
46781;SDS011;32541;46.298;11.506;2022-10-31T06:34:39;8.02;;;1.52;;
46781;SDS011;32541;46.298;11.506;2022-10-31T06:37:06;5.88;;;1.95;;
46781;SDS011;32541;46.298;11.506;2022-10-31T06:39:32;10.73;;;3.10;;
46781;SDS011;32541;46.298;11.506;2022-10-31T06:41:58;5.15;;;2.25;;
46781;SDS011;32541;46.298;11.506;2022-10-31T06:44:23;8.70;;;2.85;;
46781;SDS011;32541;46.298;11.506;2022-10-31T06:46:49;7.82;;;2.00;;
46781;SDS011;32541;46.298;11.506;2022-10-31T06:49:14;9.73;;;2.13;;
46781;SDS011;32541;46.298;11.506;2022-10-31T06:51:40;10.50;;;1.88;;
46781;SDS011;32541;46.298;11.506;2022-10-31T06:54:05;9.27;;;3.17;;
46781;SDS011;32541;46.298;11.506;2022-10-31T06:56:30;6.68;;;1.85;;
46781;SDS011;32541;46.298;11.506;2022-10-31T06:58:56;8.57;;;1.77;;
46781;SDS011;32541;46.298;11.506;2022-10-31T07:01:21;6.18;;;2.83;;
46781;SDS011;32541;46.298;11.506;2022-10-31T07:03:47;8.07;;;2.38;;
46781;SDS011;32541;46.298;11.506;2022-10-31T07:06:13;14.43;;;2.10;;
46781;SDS011;32541;46.298;11.506;2022-10-31T07:08:38;6.07;;;1.92;;
46781;SDS011;32541;46.298;11.506;2022-10-31T07:11:04;8.20;;;2.30;;
46781;SDS011;32541;46.298;11.506;2022-10-31T07:13:29;8.50;;;2.10;;
46781;SDS011;32541;46.298;11.506;2022-10-31T07:15:58;10.07;;;1.70;;
46781;SDS011;32541;46.298;11.506;2022-10-31T07:18:26;6.13;;;1.90;;
46781;SDS011;32541;46.298;11.506;2022-10-31T07:20:52;10.38;;;2.40;;
46781;SDS011;32541;46.298;11.506;2022-10-31T07:23:18;8.02;;;1.25;;
46781;SDS011;32541;46.298;11.506;2022-10-31T07:25:44;11.02;;;1.98;;
46781;SDS011;32541;46.298;11.506;2022-10-31T07:28:10;3.65;;;1.20;;
46781;SDS011;32541;46.298;11.506;2022-10-31T07:30:36;6.63;;;2.22;;
46781;SDS011;32541;46.298;11.506;2022-10-31T07:33:02;8.88;;;2.10;;
46781;SDS011;32541;46.298;11.506;2022-10-31T07:35:29;11.45;;;2.42;;
46781;SDS011;32541;46.298;11.506;2022-10-31T07:37:55;6.70;;;2.40;;
46781;SDS011;32541;46.298;11.506;2022-10-31T07:40:22;11.70;;;2.63;;
46781;SDS011;32541;46.298;11.506;2022-10-31T07:42:48;11.73;;;4.32;;
46781;SDS011;32541;46.298;11.506;2022-10-31T07:45:16;12.63;;;4.93;;
46781;SDS011;32541;46.298;11.506;2022-10-31T07:47:44;7.32;;;2.55;;
46781;SDS011;32541;46.298;11.506;2022-10-31T07:50:15;10.90;;;2.42;;
46781;SDS011;32541;46.298;11.506;2022-10-31T07:52:42;6.93;;;2.42;;
46781;SDS011;32541;46.298;11.506;2022-10-31T07:55:07;7.28;;;2.00;;
46781;SDS011;32541;46.298;11.506;2022-10-31T07:57:33;12.05;;;2.55;;
46781;SDS011;32541;46.298;11.506;2022-10-31T07:59:59;7.95;;;2.88;;
46781;SDS011;32541;46.298;11.506;2022-10-31T08:02:25;7.10;;;3.17;;
46781;SDS011;32541;46.298;11.506;2022-10-31T08:04:51;11.50;;;3.63;;
46781;SDS011;32541;46.298;11.506;2022-10-31T08:07:17;7.43;;;4.20;;
46781;SDS011;32541;46.298;11.506;2022-10-31T08:09:43;13.40;;;7.00;;
46781;SDS011;32541;46.298;11.506;2022-10-31T08:12:09;16.10;;;8.40;;
46781;SDS011;32541;46.298;11.506;2022-10-31T08:14:34;15.88;;;7.80;;
46781;SDS011;32541;46.298;11.506;2022-10-31T08:17:00;15.25;;;7.43;;
46781;SDS011;32541;46.298;11.506;2022-10-31T08:19:25;21.58;;;7.70;;
46781;SDS011;32541;46.298;11.506;2022-10-31T08:21:51;18.02;;;6.72;;
46781;SDS011;32541;46.298;11.506;2022-10-31T08:24:18;15.95;;;6.90;;
46781;SDS011;32541;46.298;11.506;2022-10-31T08:26:43;17.00;;;6.63;;
46781;SDS011;32541;46.298;11.506;2022-10-31T08:29:09;14.55;;;6.65;;
46781;SDS011;32541;46.298;11.506;2022-10-31T08:31:34;9.77;;;5.10;;
46781;SDS011;32541;46.298;11.506;2022-10-31T08:34:00;11.13;;;4.60;;
46781;SDS011;32541;46.298;11.506;2022-10-31T08:36:26;15.52;;;4.53;;
46781;SDS011;32541;46.298;11.506;2022-10-31T08:38:52;11.02;;;3.55;;
46781;SDS011;32541;46.298;11.506;2022-10-31T08:41:17;7.40;;;2.60;;
46781;SDS011;32541;46.298;11.506;2022-10-31T08:43:43;9.85;;;2.67;;
46781;SDS011;32541;46.298;11.506;2022-10-31T08:46:08;7.72;;;2.50;;
46781;SDS011;32541;46.298;11.506;2022-10-31T08:48:34;8.35;;;3.13;;
46781;SDS011;32541;46.298;11.506;2022-10-31T08:50:59;9.38;;;3.13;;
46781;SDS011;32541;46.298;11.506;2022-10-31T08:53:25;11.82;;;4.50;;
46781;SDS011;32541;46.298;11.506;2022-10-31T08:55:53;11.05;;;3.65;;
46781;SDS011;32541;46.298;11.506;2022-10-31T08:58:20;10.85;;;3.45;;
46781;SDS011;32541;46.298;11.506;2022-10-31T09:00:47;11.02;;;3.15;;
46781;SDS011;32541;46.298;11.506;2022-10-31T09:03:19;9.80;;;3.50;;
46781;SDS011;32541;46.298;11.506;2022-10-31T09:05:46;9.80;;;3.50;;
46781;SDS011;32541;46.298;11.506;2022-10-31T09:08:13;10.75;;;3.50;;
46781;SDS011;32541;46.298;11.506;2022-10-31T09:10:39;8.40;;;2.92;;
46781;SDS011;32541;46.298;11.506;2022-10-31T09:13:06;10.77;;;3.70;;
46781;SDS011;32541;46.298;11.506;2022-10-31T09:15:35;9.10;;;3.08;;
46781;SDS011;32541;46.298;11.506;2022-10-31T09:18:03;6.57;;;3.47;;
46781;SDS011;32541;46.298;11.506;2022-10-31T09:20:30;12.07;;;4.13;;
46781;SDS011;32541;46.298;11.506;2022-10-31T09:22:57;8.88;;;3.13;;
46781;SDS011;32541;46.298;11.506;2022-10-31T09:27:58;8.30;;;3.00;;
46781;SDS011;32541;46.298;11.506;2022-10-31T09:30:25;6.47;;;2.65;;
46781;SDS011;32541;46.298;11.506;2022-10-31T09:33:25;6.32;;;2.13;;
46781;SDS011;32541;46.298;11.506;2022-10-31T09:35:44;5.80;;;2.22;;
46781;SDS011;32541;46.298;11.506;2022-10-31T09:38:16;9.23;;;2.50;;
46781;SDS011;32541;46.298;11.506;2022-10-31T09:45:49;6.85;;;2.70;;
46781;SDS011;32541;46.298;11.506;2022-10-31T09:50:57;13.85;;;2.60;;
46781;SDS011;32541;46.298;11.506;2022-10-31T09:53:42;10.77;;;2.92;;
46781;SDS011;32541;46.298;11.506;2022-10-31T09:56:16;9.90;;;3.10;;
46781;SDS011;32541;46.298;11.506;2022-10-31T09:58:46;12.07;;;4.57;;
46781;SDS011;32541;46.298;11.506;2022-10-31T10:01:25;13.32;;;2.85;;
46781;SDS011;32541;46.298;11.506;2022-10-31T10:03:54;6.10;;;2.00;;
46781;SDS011;32541;46.298;11.506;2022-10-31T10:06:44;6.57;;;2.03;;
46781;SDS011;32541;46.298;11.506;2022-10-31T10:09:13;11.57;;;2.33;;
46781;SDS011;32541;46.298;11.506;2022-10-31T10:14:26;10.95;;;2.28;;
46781;SDS011;32541;46.298;11.506;2022-10-31T10:17:05;10.02;;;2.72;;
46781;SDS011;32541;46.298;11.506;2022-10-31T10:19:50;9.35;;;2.45;;
46781;SDS011;32541;46.298;11.506;2022-10-31T10:22:30;12.55;;;2.88;;
46781;SDS011;32541;46.298;11.506;2022-10-31T10:31:04;6.28;;;2.10;;
46781;SDS011;32541;46.298;11.506;2022-10-31T10:36:17;6.35;;;2.22;;
46781;SDS011;32541;46.298;11.506;2022-10-31T10:38:55;6.47;;;2.05;;
46781;SDS011;32541;46.298;11.506;2022-10-31T10:41:29;6.85;;;2.33;;
46781;SDS011;32541;46.298;11.506;2022-10-31T10:43:57;6.75;;;2.17;;
46781;SDS011;32541;46.298;11.506;2022-10-31T10:49:19;7.93;;;2.60;;
46781;SDS011;32541;46.298;11.506;2022-10-31T10:54:46;5.18;;;1.75;;
46781;SDS011;32541;46.298;11.506;2022-10-31T10:57:25;6.30;;;2.22;;
46781;SDS011;32541;46.298;11.506;2022-10-31T10:59:58;6.47;;;2.70;;
46781;SDS011;32541;46.298;11.506;2022-10-31T11:05:21;8.00;;;2.58;;
46781;SDS011;32541;46.298;11.506;2022-10-31T11:07:50;5.75;;;1.70;;
46781;SDS011;32541;46.298;11.506;2022-10-31T11:10:16;8.18;;;2.88;;
46781;SDS011;32541;46.298;11.506;2022-10-31T11:12:43;12.25;;;2.55;;
46781;SDS011;32541;46.298;11.506;2022-10-31T11:15:21;6.22;;;2.88;;
46781;SDS011;32541;46.298;11.506;2022-10-31T11:17:50;7.88;;;1.73;;
46781;SDS011;32541;46.298;11.506;2022-10-31T11:22:44;6.32;;;2.67;;
46781;SDS011;32541;46.298;11.506;2022-10-31T11:25:19;5.88;;;2.55;;
46781;SDS011;32541;46.298;11.506;2022-10-31T11:27:45;10.40;;;2.22;;
46781;SDS011;32541;46.298;11.506;2022-10-31T11:30:14;5.75;;;1.63;;
46781;SDS011;32541;46.298;11.506;2022-10-31T11:32:44;4.93;;;1.73;;
46781;SDS011;32541;46.298;11.506;2022-10-31T11:35:16;6.18;;;1.83;;
46781;SDS011;32541;46.298;11.506;2022-10-31T11:37:44;6.25;;;1.73;;
46781;SDS011;32541;46.298;11.506;2022-10-31T11:40:22;9.32;;;2.40;;
46781;SDS011;32541;46.298;11.506;2022-10-31T11:42:49;6.32;;;1.92;;
46781;SDS011;32541;46.298;11.506;2022-10-31T11:47:49;4.80;;;1.88;;
46781;SDS011;32541;46.298;11.506;2022-10-31T11:50:24;8.98;;;1.90;;
46781;SDS011;32541;46.298;11.506;2022-10-31T11:52:59;7.85;;;1.88;;
46781;SDS011;32541;46.298;11.506;2022-10-31T11:57:58;4.75;;;1.60;;
46781;SDS011;32541;46.298;11.506;2022-10-31T12:00:28;7.25;;;2.08;;
46781;SDS011;32541;46.298;11.506;2022-10-31T12:06:07;8.60;;;1.95;;
46781;SDS011;32541;46.298;11.506;2022-10-31T12:08:37;8.55;;;2.17;;
46781;SDS011;32541;46.298;11.506;2022-10-31T12:13:59;9.43;;;1.95;;
46781;SDS011;32541;46.298;11.506;2022-10-31T12:22:36;11.07;;;2.17;;
46781;SDS011;32541;46.298;11.506;2022-10-31T12:33:32;7.95;;;1.48;;
46781;SDS011;32541;46.298;11.506;2022-10-31T12:49:54;7.40;;;1.83;;
46781;SDS011;32541;46.298;11.506;2022-10-31T12:55:32;4.72;;;2.40;;
46781;SDS011;32541;46.298;11.506;2022-10-31T12:58:33;5.78;;;1.60;;
46781;SDS011;32541;46.298;11.506;2022-10-31T13:06:08;4.38;;;1.50;;
46781;SDS011;32541;46.298;11.506;2022-10-31T13:08:39;9.13;;;2.35;;
46781;SDS011;32541;46.298;11.506;2022-10-31T13:13:55;6.60;;;2.00;;
46781;SDS011;32541;46.298;11.506;2022-10-31T13:16:24;10.27;;;2.95;;
46781;SDS011;32541;46.298;11.506;2022-10-31T13:19:00;8.25;;;2.20;;
46781;SDS011;32541;46.298;11.506;2022-10-31T13:24:32;8.98;;;2.55;;
46781;SDS011;32541;46.298;11.506;2022-10-31T13:27:03;9.90;;;2.50;;
46781;SDS011;32541;46.298;11.506;2022-10-31T13:32:48;8.13;;;3.20;;
46781;SDS011;32541;46.298;11.506;2022-10-31T13:35:26;11.55;;;2.58;;
46781;SDS011;32541;46.298;11.506;2022-10-31T13:38:05;8.88;;;1.45;;
46781;SDS011;32541;46.298;11.506;2022-10-31T13:48:57;5.00;;;1.70;;
46781;SDS011;32541;46.298;11.506;2022-10-31T13:51:28;6.90;;;1.80;;
46781;SDS011;32541;46.298;11.506;2022-10-31T14:01:33;7.15;;;1.80;;
46781;SDS011;32541;46.298;11.506;2022-10-31T14:04:04;4.65;;;1.90;;
46781;SDS011;32541;46.298;11.506;2022-10-31T14:09:31;5.40;;;1.38;;
46781;SDS011;32541;46.298;11.506;2022-10-31T14:12:00;12.90;;;3.05;;
46781;SDS011;32541;46.298;11.506;2022-10-31T14:14:33;6.75;;;1.58;;
46781;SDS011;32541;46.298;11.506;2022-10-31T14:17:14;8.25;;;1.95;;
46781;SDS011;32541;46.298;11.506;2022-10-31T14:19:55;8.48;;;1.77;;
46781;SDS011;32541;46.298;11.506;2022-10-31T14:22:41;5.07;;;1.33;;
46781;SDS011;32541;46.298;11.506;2022-10-31T14:25:26;8.52;;;1.80;;
46781;SDS011;32541;46.298;11.506;2022-10-31T14:27:53;7.75;;;2.42;;
46781;SDS011;32541;46.298;11.506;2022-10-31T14:30:20;7.03;;;1.92;;
46781;SDS011;32541;46.298;11.506;2022-10-31T14:32:51;6.72;;;2.00;;
46781;SDS011;32541;46.298;11.506;2022-10-31T14:35:24;4.63;;;1.30;;
46781;SDS011;32541;46.298;11.506;2022-10-31T14:38:11;8.18;;;1.88;;
46781;SDS011;32541;46.298;11.506;2022-10-31T14:52:12;5.90;;;1.90;;
46781;SDS011;32541;46.298;11.506;2022-10-31T14:54:42;7.00;;;1.60;;
46781;SDS011;32541;46.298;11.506;2022-10-31T14:57:18;8.00;;;1.67;;
46781;SDS011;32541;46.298;11.506;2022-10-31T14:59:46;7.07;;;1.95;;
46781;SDS011;32541;46.298;11.506;2022-10-31T15:04:44;5.50;;;2.03;;
46781;SDS011;32541;46.298;11.506;2022-10-31T15:07:13;7.15;;;1.95;;
46781;SDS011;32541;46.298;11.506;2022-10-31T15:09:42;5.20;;;1.55;;
46781;SDS011;32541;46.298;11.506;2022-10-31T15:12:42;5.45;;;1.95;;
46781;SDS011;32541;46.298;11.506;2022-10-31T15:17:51;7.60;;;3.95;;
46781;SDS011;32541;46.298;11.506;2022-10-31T15:20:20;6.18;;;3.05;;
46781;SDS011;32541;46.298;11.506;2022-10-31T15:22:48;9.95;;;4.05;;
46781;SDS011;32541;46.298;11.506;2022-10-31T15:25:18;8.52;;;3.25;;
46781;SDS011;32541;46.298;11.506;2022-10-31T15:27:45;7.35;;;4.63;;
46781;SDS011;32541;46.298;11.506;2022-10-31T15:32:46;16.23;;;7.10;;
46781;SDS011;32541;46.298;11.506;2022-10-31T15:35:19;14.18;;;6.20;;
46781;SDS011;32541;46.298;11.506;2022-10-31T15:37:52;12.70;;;6.25;;
46781;SDS011;32541;46.298;11.506;2022-10-31T15:40:19;11.90;;;5.97;;
46781;SDS011;32541;46.298;11.506;2022-10-31T15:42:49;11.43;;;5.03;;
46781;SDS011;32541;46.298;11.506;2022-10-31T15:47:52;13.07;;;5.32;;
46781;SDS011;32541;46.298;11.506;2022-10-31T15:50:48;13.57;;;5.35;;
46781;SDS011;32541;46.298;11.506;2022-10-31T15:53:17;10.25;;;5.07;;
46781;SDS011;32541;46.298;11.506;2022-10-31T15:58:23;14.05;;;6.35;;
46781;SDS011;32541;46.298;11.506;2022-10-31T16:00:57;12.90;;;6.30;;
46781;SDS011;32541;46.298;11.506;2022-10-31T16:03:32;13.93;;;5.45;;
46781;SDS011;32541;46.298;11.506;2022-10-31T16:06:02;10.48;;;5.50;;
46781;SDS011;32541;46.298;11.506;2022-10-31T16:11:40;8.77;;;3.70;;
46781;SDS011;32541;46.298;11.506;2022-10-31T16:16:17;22.52;;;9.60;;
46781;SDS011;32541;46.298;11.506;2022-10-31T16:18:45;22.25;;;10.57;;
46781;SDS011;32541;46.298;11.506;2022-10-31T16:21:12;19.17;;;8.98;;
46781;SDS011;32541;46.298;11.506;2022-10-31T16:23:38;16.52;;;8.07;;
46781;SDS011;32541;46.298;11.506;2022-10-31T16:26:09;7.80;;;3.70;;
46781;SDS011;32541;46.298;11.506;2022-10-31T16:28:49;13.48;;;4.65;;
46781;SDS011;32541;46.298;11.506;2022-10-31T16:31:24;11.52;;;4.57;;
46781;SDS011;32541;46.298;11.506;2022-10-31T16:34:02;12.70;;;4.10;;
46781;SDS011;32541;46.298;11.506;2022-10-31T16:36:31;31.55;;;19.63;;
46781;SDS011;32541;46.298;11.506;2022-10-31T16:38:58;12.48;;;5.65;;
46781;SDS011;32541;46.298;11.506;2022-10-31T16:41:24;15.75;;;12.32;;
46781;SDS011;32541;46.298;11.506;2022-10-31T16:43:50;13.75;;;8.30;;
46781;SDS011;32541;46.298;11.506;2022-10-31T16:46:20;13.77;;;6.43;;
46781;SDS011;32541;46.298;11.506;2022-10-31T16:48:50;17.23;;;12.90;;
46781;SDS011;32541;46.298;11.506;2022-10-31T16:51:16;39.58;;;23.35;;
46781;SDS011;32541;46.298;11.506;2022-10-31T16:53:41;87.65;;;41.88;;
46781;SDS011;32541;46.298;11.506;2022-10-31T16:56:12;73.40;;;36.78;;
46781;SDS011;32541;46.298;11.506;2022-10-31T16:58:41;13.50;;;8.50;;
46781;SDS011;32541;46.298;11.506;2022-10-31T17:01:08;15.80;;;10.00;;
46781;SDS011;32541;46.298;11.506;2022-10-31T17:03:34;20.42;;;10.05;;
46781;SDS011;32541;46.298;11.506;2022-10-31T17:06:00;15.32;;;9.68;;
46781;SDS011;32541;46.298;11.506;2022-10-31T17:08:25;22.65;;;16.00;;
46781;SDS011;32541;46.298;11.506;2022-10-31T17:10:52;17.60;;;9.65;;
46781;SDS011;32541;46.298;11.506;2022-10-31T17:13:20;24.58;;;14.20;;
46781;SDS011;32541;46.298;11.506;2022-10-31T17:15:55;17.35;;;8.88;;
46781;SDS011;32541;46.298;11.506;2022-10-31T17:18:22;10.75;;;5.93;;
46781;SDS011;32541;46.298;11.506;2022-10-31T17:20:48;7.85;;;5.72;;
46781;SDS011;32541;46.298;11.506;2022-10-31T17:23:15;10.68;;;5.50;;
46781;SDS011;32541;46.298;11.506;2022-10-31T17:25:42;13.98;;;6.90;;
46781;SDS011;32541;46.298;11.506;2022-10-31T17:28:11;13.80;;;6.57;;
46781;SDS011;32541;46.298;11.506;2022-10-31T17:30:38;14.15;;;4.57;;
46781;SDS011;32541;46.298;11.506;2022-10-31T17:33:04;9.23;;;4.28;;
46781;SDS011;32541;46.298;11.506;2022-10-31T17:35:30;9.82;;;3.40;;